If you wish to contribute or participate in the discussions about articles you are invited to join SKYbrary as a registered user

 Actions

Atqasuk Edward Burnell Sr Memorial Airport

From SKYbrary Wiki

PATQ
Airport
ICAO: PATQ – IATA: ATK
Summary
Name Atqasuk Edward Burnell Sr Memorial Airport
Region North America
Territory Alaska US.gif
Location Atqasuk, Alaska
Serving Atqasuk
Elevation 29.261 m
96 ft
96 ft29.261 m
Type medium airport
Coordinates 70° 28' 2.28", -157° 26' 9.6"
Runways
Designator Length Width Surface ROPS
6/24 1332 m4,370.079 ft 27 m88.583 ft GVL yes/yes
METAR
Observation PATQ 111114Z AUTO 06028KT 3/4SM -SN BR BKN005 BKN017 OVC028 M18/M19 A2991 RMK AO2 PK WND 06031/1113 CIG 004V008 P0000 FZRANO TSNO
Station ATQASUK BURNELL
Date/Time 11 December 2017 11:14:00
Wind direction 60°
Wind speed 28 kts
Lowest cloud amount broken clouds
Temperature
Dew point
Humidity 91%
QNH hPa
Weather condition light

Maps

Terrain

Loading map...

Airport Layout

Loading map...


Accidents & Serious Incidents at or in vicinity of PATQ

None on SKYbrary